Mitrope — 9HBH6 — position and weather

sailwx.info

Track history (hours):
 
Tides and Currents Weather Stations Pressure Air Temp Water Temp Dewpoint Dewpoint Depression Visibility Wind Speed Wind Dir Waves Ship Positions

Mitrope

Last reported at 2014-Nov-16 12:33 UTC. Time now 2014-Nov-27 06:43 UTC.
Position N 25°43' W 079°39'.
Warning: this ship's position is 10 days out of date.

Length 149 m; draft 6.7 m.

Type: Tanker. MMSI: 248360000.

Date/timePositionNaut miles runAvg speedWind from/ knotsBaromVisibWave heightAir tempDewpointWater temp
2014-Nov-16 12:33N 25°43' W 079°39'1111.1
2014-Nov-16 11:33N 25°54' W 079°37'1111.1
2014-Nov-16 10:33N 26°05' W 079°34'1111.1
2014-Nov-16 09:33N 26°16' W 079°33'1211.5
2014-Nov-16 08:33N 26°27' W 079°30'1411.9
2014-Nov-16 07:24N 26°41' W 079°28'47913.4
2014-Nov-14 19:33N 34°20' W 076°48'1010.2
2014-Nov-14 18:34N 34°29' W 076°43'10 9.7
2014-Nov-14 17:33N 34°39' W 076°41'4 4.1
2014-Nov-14 16:32N 34°43' W 076°41'0 0.0
2014-Nov-14 15:32N 34°43' W 076°41'0 0.0
2014-Nov-14 14:32N 34°43' W 076°41'0 0.0
2014-Nov-14 12:29N 34°43' W 076°41'0 0.0
2014-Nov-14 11:32N 34°43' W 076°41'0 0.0
2014-Nov-14 10:32N 34°43' W 076°41'0 0.0
2014-Nov-14 09:32N 34°43' W 076°41'0 0.0
2014-Nov-14 08:32N 34°43' W 076°41'0 0.0
2014-Nov-14 07:32N 34°43' W 076°41'0 0.0
2014-Nov-14 06:32N 34°43' W 076°41'0 0.0
2014-Nov-14 05:32N 34°43' W 076°41'0 0.0
2014-Nov-14 04:32N 34°43' W 076°41'0 0.0
2014-Nov-14 03:32N 34°43' W 076°41'0 0.0
2014-Nov-14 02:32N 34°43' W 076°41'0 0.0
2014-Nov-14 01:32N 34°43' W 076°41'0 0.0
2014-Nov-14 00:32N 34°43' W 076°41'0 0.0
2014-Nov-13 23:32N 34°43' W 076°41'0 0.0
2014-Nov-13 22:32N 34°43' W 076°41'0 0.0
2014-Nov-13 21:32N 34°43' W 076°41'0 0.0
2014-Nov-13 20:33N 34°43' W 076°41'3 3.1
2014-Nov-13 19:33N 34°40' W 076°40'9 9.4
2014-Nov-13 18:33N 34°31' W 076°44'10 9.7
2014-Nov-13 17:32N 34°22' W 076°49'46513.2
2014-Nov-12 06:24N 27°01' W 079°42'  
Track history (hours):
 
Tides and Currents Weather Stations Pressure Air Temp Water Temp Dewpoint Dewpoint Depression Visibility Wind Speed Wind Dir Waves Ship Positions

Mitrope

Last reported at 2014-Nov-16 12:33 UTC. Time now 2014-Nov-27 06:43 UTC.
Position N 25°43' W 079°39'.
Warning: this ship's position is 10 days out of date.

Length 149 m; draft 6.7 m.

Type: Tanker. MMSI: 248360000.

Date/timePositionNaut miles runAvg speedWind from/ knotsBaromVisibWave heightAir tempDewpointWater temp
2014-Nov-16 12:33N 25°43' W 079°39'1111.1
2014-Nov-16 11:33N 25°54' W 079°37'1111.1
2014-Nov-16 10:33N 26°05' W 079°34'1111.1
2014-Nov-16 09:33N 26°16' W 079°33'1211.5
2014-Nov-16 08:33N 26°27' W 079°30'1411.9
2014-Nov-16 07:24N 26°41' W 079°28'47913.4
2014-Nov-14 19:33N 34°20' W 076°48'1010.2
2014-Nov-14 18:34N 34°29' W 076°43'10 9.7
2014-Nov-14 17:33N 34°39' W 076°41'4 4.1
2014-Nov-14 16:32N 34°43' W 076°41'0 0.0
2014-Nov-14 15:32N 34°43' W 076°41'0 0.0
2014-Nov-14 14:32N 34°43' W 076°41'0 0.0
2014-Nov-14 12:29N 34°43' W 076°41'0 0.0
2014-Nov-14 11:32N 34°43' W 076°41'0 0.0
2014-Nov-14 10:32N 34°43' W 076°41'0 0.0
2014-Nov-14 09:32N 34°43' W 076°41'0 0.0
2014-Nov-14 08:32N 34°43' W 076°41'0 0.0
2014-Nov-14 07:32N 34°43' W 076°41'0 0.0
2014-Nov-14 06:32N 34°43' W 076°41'0 0.0
2014-Nov-14 05:32N 34°43' W 076°41'0 0.0
2014-Nov-14 04:32N 34°43' W 076°41'0 0.0
2014-Nov-14 03:32N 34°43' W 076°41'0 0.0
2014-Nov-14 02:32N 34°43' W 076°41'0 0.0
2014-Nov-14 01:32N 34°43' W 076°41'0 0.0
2014-Nov-14 00:32N 34°43' W 076°41'0 0.0
2014-Nov-13 23:32N 34°43' W 076°41'0 0.0
2014-Nov-13 22:32N 34°43' W 076°41'0 0.0
2014-Nov-13 21:32N 34°43' W 076°41'0 0.0
2014-Nov-13 20:33N 34°43' W 076°41'3 3.1
2014-Nov-13 19:33N 34°40' W 076°40'9 9.4
2014-Nov-13 18:33N 34°31' W 076°44'10 9.7
2014-Nov-13 17:32N 34°22' W 076°49'46513.2
2014-Nov-12 06:24N 27°01' W 079°42'  

Dump ship's entire track history